sensor_id;sensor_type;location;lat;lon;timestamp;pressure;altitude;pressure_sealevel;temperature;humidity
76044;BME280;64740;34.694;33.088;2023-02-08T00:01:23;1040.6;;;12.8;41.7
76044;BME280;64740;34.694;33.088;2023-02-08T00:06:42;1040.6;;;12.8;41.8
76044;BME280;64740;34.694;33.088;2023-02-08T00:11:12;1040.7;;;12.8;41.7
76044;BME280;64740;34.694;33.088;2023-02-08T00:16:44;1040.6;;;12.8;41.9
76044;BME280;64740;34.694;33.088;2023-02-08T00:21:13;1040.7;;;12.7;42.3
76044;BME280;64740;34.694;33.088;2023-02-08T00:26:52;1040.7;;;12.8;42.6
76044;BME280;64740;34.694;33.088;2023-02-08T00:31:54;1040.7;;;12.7;42.3
76044;BME280;64740;34.694;33.088;2023-02-08T00:36:22;1040.7;;;12.7;42.6
76044;BME280;64740;34.694;33.088;2023-02-08T00:41:42;1040.6;;;12.8;42.8
76044;BME280;64740;34.694;33.088;2023-02-08T00:46:32;1040.7;;;12.8;42.7
76044;BME280;64740;34.694;33.088;2023-02-08T00:51:44;1040.7;;;12.8;42.8
76044;BME280;64740;34.694;33.088;2023-02-08T00:56:22;1040.7;;;12.8;42.7
76044;BME280;64740;34.694;33.088;2023-02-08T01:01:38;1040.7;;;12.8;42.4
76044;BME280;64740;34.694;33.088;2023-02-08T01:06:13;1040.7;;;12.7;42
76044;BME280;64740;34.694;33.088;2023-02-08T01:11:28;1040.7;;;12.5;42.3
76044;BME280;64740;34.694;33.088;2023-02-08T01:16:19;1040.8;;;12.4;43
76044;BME280;64740;34.694;33.088;2023-02-08T01:21:54;1040.8;;;12.4;42.8
76044;BME280;64740;34.694;33.088;2023-02-08T01:26:21;1040.8;;;12.3;43.4
76044;BME280;64740;34.694;33.088;2023-02-08T01:31:40;1040.8;;;12.4;43.4
76044;BME280;64740;34.694;33.088;2023-02-08T01:36:52;1040.8;;;12.3;43.1
76044;BME280;64740;34.694;33.088;2023-02-08T01:41:23;1040.9;;;12.2;42.9
76044;BME280;64740;34.694;33.088;2023-02-08T01:46:45;1040.9;;;12.1;43.2
76044;BME280;64740;34.694;33.088;2023-02-08T01:51:13;1041;;;12;43.3
76044;BME280;64740;34.694;33.088;2023-02-08T01:56:43;1041.1;;;11.9;43.8
76044;BME280;64740;34.694;33.088;2023-02-08T02:01:32;1041.1;;;12;43.5
76044;BME280;64740;34.694;33.088;2023-02-08T02:06:41;1041.2;;;11.9;43.7
76044;BME280;64740;34.694;33.088;2023-02-08T02:11:12;1041.2;;;12;43.5
76044;BME280;64740;34.694;33.088;2023-02-08T02:16:54;1041.3;;;12;42.9
76044;BME280;64740;34.694;33.088;2023-02-08T02:21:44;1041.4;;;12;42.6
76044;BME280;64740;34.694;33.088;2023-02-08T02:26:52;1041.5;;;11.3;42.6
76044;BME280;64740;34.694;33.088;2023-02-08T02:31:58;1041.5;;;10;45.8
76044;BME280;64740;34.694;33.088;2023-02-08T02:36:14;1041.7;;;9;48.1
76044;BME280;64740;34.694;33.088;2023-02-08T02:41:47;1041.8;;;8.6;48.3
76044;BME280;64740;34.694;33.088;2023-02-08T02:46:14;1041.9;;;8.3;47.8
76044;BME280;64740;34.694;33.088;2023-02-08T02:51:44;1041.9;;;8.2;49.9
76044;BME280;64740;34.694;33.088;2023-02-08T02:56:14;1041.8;;;8.2;49.2
76044;BME280;64740;34.694;33.088;2023-02-08T03:01:46;1041.7;;;8.3;49.5
76044;BME280;64740;34.694;33.088;2023-02-08T03:06:13;1041.7;;;8.3;48.9
76044;BME280;64740;34.694;33.088;2023-02-08T03:11:45;1041.8;;;8.3;49.3
76044;BME280;64740;34.694;33.088;2023-02-08T03:16:44;1041.9;;;8.4;49.4
76044;BME280;64740;34.694;33.088;2023-02-08T03:21:53;1042;;;8.8;49.1
76044;BME280;64740;34.694;33.088;2023-02-08T03:26:35;1042.1;;;9.4;49.1
76044;BME280;64740;34.694;33.088;2023-02-08T03:31:14;1042.2;;;9.9;48.2
76044;BME280;64740;34.694;33.088;2023-02-08T03:36:51;1042.2;;;10.4;47.6
76044;BME280;64740;34.694;33.088;2023-02-08T03:41:25;1042.3;;;10.6;46.4
76044;BME280;64740;34.694;33.088;2023-02-08T03:46:45;1042.3;;;10.9;46.1
76044;BME280;64740;34.694;33.088;2023-02-08T03:51:54;1042.4;;;11.1;45.9
76044;BME280;64740;34.694;33.088;2023-02-08T03:56:53;1042.5;;;11.3;45
76044;BME280;64740;34.694;33.088;2023-02-08T04:01:29;1042.6;;;11.4;45.2
76044;BME280;64740;34.694;33.088;2023-02-08T04:06:54;1042.6;;;11.5;44.5
76044;BME280;64740;34.694;33.088;2023-02-08T04:11:30;1042.7;;;11.6;44.5
76044;BME280;64740;34.694;33.088;2023-02-08T04:16:22;1042.8;;;11.5;43.9
76044;BME280;64740;34.694;33.088;2023-02-08T04:21:32;1042.8;;;11.5;43.8
76044;BME280;64740;34.694;33.088;2023-02-08T04:26:22;1042.8;;;11.5;43.8
76044;BME280;64740;34.694;33.088;2023-02-08T04:31:36;1042.9;;;11.6;44.1
76044;BME280;64740;34.694;33.088;2023-02-08T04:36:18;1043;;;11.6;43.5
76044;BME280;64740;34.694;33.088;2023-02-08T04:41:22;1043.1;;;11.7;43.7
76044;BME280;64740;34.694;33.088;2023-02-08T04:46:54;1043.2;;;11.8;42.9
76044;BME280;64740;34.694;33.088;2023-02-08T04:51:28;1043.3;;;11.7;42.7
76044;BME280;64740;34.694;33.088;2023-02-08T04:56:32;1043.4;;;11.8;42.9
76044;BME280;64740;34.694;33.088;2023-02-08T05:01:52;1043.4;;;11.8;43
76044;BME280;64740;34.694;33.088;2023-02-08T05:06:42;1043.5;;;11.8;42.9
76044;BME280;64740;34.694;33.088;2023-02-08T05:11:34;1043.6;;;11.8;43.1
76044;BME280;64740;34.694;33.088;2023-02-08T05:16:34;1043.8;;;11.9;43.2
76044;BME280;64740;34.694;33.088;2023-02-08T05:21:24;1043.8;;;11.9;43.1
76044;BME280;64740;34.694;33.088;2023-02-08T05:26:24;1043.9;;;12;43.2
76044;BME280;64740;34.694;33.088;2023-02-08T05:31:13;1044;;;12.1;42.8
76044;BME280;64740;34.694;33.088;2023-02-08T05:36:38;1044;;;12.2;42.5
76044;BME280;64740;34.694;33.088;2023-02-08T05:41:56;1044.1;;;12.2;42.7
76044;BME280;64740;34.694;33.088;2023-02-08T05:46:12;1044.2;;;12.3;42.7
76044;BME280;64740;34.694;33.088;2023-02-08T05:51:12;1044.2;;;12.4;42.1
76044;BME280;64740;34.694;33.088;2023-02-08T05:56:54;1044.3;;;12.5;41.7
76044;BME280;64740;34.694;33.088;2023-02-08T06:01:40;1044.4;;;12.6;41.6
76044;BME280;64740;34.694;33.088;2023-02-08T06:06:24;1044.5;;;12.6;41.2
76044;BME280;64740;34.694;33.088;2023-02-08T06:11:22;1044.5;;;12.7;41
76044;BME280;64740;34.694;33.088;2023-02-08T06:16:22;1044.6;;;12.8;41
76044;BME280;64740;34.694;33.088;2023-02-08T06:21:34;1044.6;;;12.9;40.6
76044;BME280;64740;34.694;33.088;2023-02-08T06:26:55;1044.6;;;13;40.7
76044;BME280;64740;34.694;33.088;2023-02-08T06:31:36;1044.6;;;13.2;40.6
76044;BME280;64740;34.694;33.088;2023-02-08T06:36:54;1044.5;;;13.3;40
76044;BME280;64740;34.694;33.088;2023-02-08T06:41:36;1044.6;;;13.4;39.7
76044;BME280;64740;34.694;33.088;2023-02-08T06:46:14;1044.6;;;13.6;39.3
76044;BME280;64740;34.694;33.088;2023-02-08T06:51:22;1044.6;;;13.8;38.9
76044;BME280;64740;34.694;33.088;2023-02-08T06:56:42;1044.6;;;13.9;38.5
76044;BME280;64740;34.694;33.088;2023-02-08T07:01:22;1044.7;;;14.1;37.3
76044;BME280;64740;34.694;33.088;2023-02-08T07:06:54;1044.6;;;14.2;36.5
76044;BME280;64740;34.694;33.088;2023-02-08T07:11:20;1044.7;;;14.3;36.6
76044;BME280;64740;34.694;33.088;2023-02-08T07:16:52;1044.7;;;14.4;36.6
76044;BME280;64740;34.694;33.088;2023-02-08T07:21:54;1044.8;;;14.6;36.5
76044;BME280;64740;34.694;33.088;2023-02-08T07:26:42;1044.8;;;14.8;35.5
76044;BME280;64740;34.694;33.088;2023-02-08T07:31:42;1044.8;;;14.8;35.1
76044;BME280;64740;34.694;33.088;2023-02-08T07:36:36;1044.9;;;14.9;34.8
76044;BME280;64740;34.694;33.088;2023-02-08T07:41:46;1044.9;;;15;34.8
76044;BME280;64740;34.694;33.088;2023-02-08T07:46:13;1045;;;15.2;34.5
76044;BME280;64740;34.694;33.088;2023-02-08T07:51:40;1045;;;15.3;35.3
76044;BME280;64740;34.694;33.088;2023-02-08T07:56:24;1045.1;;;15.5;35.3
76044;BME280;64740;34.694;33.088;2023-02-08T08:01:38;1045.1;;;15.6;34.8
76044;BME280;64740;34.694;33.088;2023-02-08T08:06:38;1045.2;;;15.7;34.6
76044;BME280;64740;34.694;33.088;2023-02-08T08:11:52;1045.2;;;15.7;34.2
76044;BME280;64740;34.694;33.088;2023-02-08T08:16:40;1045.3;;;15.8;34.5
76044;BME280;64740;34.694;33.088;2023-02-08T08:21:40;1045.3;;;15.9;34.6
76044;BME280;64740;34.694;33.088;2023-02-08T08:26:54;1045.3;;;15.9;34.1
76044;BME280;64740;34.694;33.088;2023-02-08T08:31:21;1045.3;;;16;34.1
76044;BME280;64740;34.694;33.088;2023-02-08T08:36:42;1045.3;;;16;34.5
76044;BME280;64740;34.694;33.088;2023-02-08T08:41:11;1045.3;;;16;34.2
76044;BME280;64740;34.694;33.088;2023-02-08T08:46:42;1045.4;;;15.9;33.8
76044;BME280;64740;34.694;33.088;2023-02-08T08:51:10;1045.4;;;16;33.9
76044;BME280;64740;34.694;33.088;2023-02-08T08:56:54;1045.3;;;16;34.1
76044;BME280;64740;34.694;33.088;2023-02-08T09:01:26;1045.4;;;16;33.7
76044;BME280;64740;34.694;33.088;2023-02-08T09:06:54;1045.3;;;16;33.7
76044;BME280;64740;34.694;33.088;2023-02-08T09:11:40;1045.3;;;16;33.8
76044;BME280;64740;34.694;33.088;2023-02-08T09:16:44;1045.3;;;16.2;33.9
76044;BME280;64740;34.694;33.088;2023-02-08T09:21:56;1045.2;;;16.3;33.6
76044;BME280;64740;34.694;33.088;2023-02-08T09:26:21;1045.3;;;16.5;33.3
76044;BME280;64740;34.694;33.088;2023-02-08T09:31:42;1045.3;;;16.5;33.1
76044;BME280;64740;34.694;33.088;2023-02-08T09:36:21;1045.3;;;16.6;33.3
76044;BME280;64740;34.694;33.088;2023-02-08T09:41:53;1045.2;;;16.6;32.9
76044;BME280;64740;34.694;33.088;2023-02-08T09:46:35;1045.2;;;16.5;32.3
76044;BME280;64740;34.694;33.088;2023-02-08T09:51:52;1045.2;;;16.4;32
76044;BME280;64740;34.694;33.088;2023-02-08T09:56:44;1045.2;;;16.3;31.9
76044;BME280;64740;34.694;33.088;2023-02-08T10:01:25;1045.1;;;16.3;32.2
76044;BME280;64740;34.694;33.088;2023-02-08T10:06:42;1045.1;;;16.2;31.8
76044;BME280;64740;34.694;33.088;2023-02-08T10:12:04;1045.1;;;16.1;32.2
76044;BME280;64740;34.694;33.088;2023-02-08T10:16:40;1045.1;;;16.1;32
76044;BME280;64740;34.694;33.088;2023-02-08T10:21:17;1045.1;;;16.1;31.7
76044;BME280;64740;34.694;33.088;2023-02-08T10:26:59;1045;;;16.2;32
76044;BME280;64740;34.694;33.088;2023-02-08T10:31:22;1045;;;16.4;32.3
76044;BME280;64740;34.694;33.088;2023-02-08T10:36:46;1045;;;16.5;32.1
76044;BME280;64740;34.694;33.088;2023-02-08T10:42:00;1045;;;16.7;31.5
76044;BME280;64740;34.694;33.088;2023-02-08T10:47:04;1045;;;16.8;31.2
76044;BME280;64740;34.694;33.088;2023-02-08T10:51:36;1045;;;17;30.9
76044;BME280;64740;34.694;33.088;2023-02-08T10:56:59;1045;;;17.2;30.7
76044;BME280;64740;34.694;33.088;2023-02-08T11:01:34;1044.9;;;17.5;30.4
76044;BME280;64740;34.694;33.088;2023-02-08T11:06:25;1044.9;;;17.9;30.5
76044;BME280;64740;34.694;33.088;2023-02-08T11:11:37;1044.9;;;18.2;30.6
76044;BME280;64740;34.694;33.088;2023-02-08T11:16:19;1044.8;;;18.5;30.5
76044;BME280;64740;34.694;33.088;2023-02-08T11:21:35;1044.8;;;18.6;30.1
76044;BME280;64740;34.694;33.088;2023-02-08T11:26:30;1044.8;;;18.5;29.8
76044;BME280;64740;34.694;33.088;2023-02-08T11:31:15;1044.8;;;18.3;29.7
76044;BME280;64740;34.694;33.088;2023-02-08T11:37:00;1044.8;;;18.5;30
76044;BME280;64740;34.694;33.088;2023-02-08T11:41:24;1044.8;;;18.8;29.5
76044;BME280;64740;34.694;33.088;2023-02-08T11:46:34;1044.8;;;19;29.2
76044;BME280;64740;34.694;33.088;2023-02-08T11:52:00;1044.8;;;19.2;29.2
76044;BME280;64740;34.694;33.088;2023-02-08T11:56:48;1044.7;;;19.4;29
76044;BME280;64740;34.694;33.088;2023-02-08T12:01:24;1044.7;;;19.6;28.7
76044;BME280;64740;34.694;33.088;2023-02-08T12:06:41;1044.8;;;19.9;28.2
76044;BME280;64740;34.694;33.088;2023-02-08T12:11:14;1044.7;;;20;27.9
76044;BME280;64740;34.694;33.088;2023-02-08T12:16:40;1044.7;;;19.9;28.6
76044;BME280;64740;34.694;33.088;2023-02-08T12:22:02;1044.6;;;20.3;28.2
76044;BME280;64740;34.694;33.088;2023-02-08T12:26:42;1044.7;;;20.6;27.8
76044;BME280;64740;34.694;33.088;2023-02-08T12:32:02;1044.8;;;20.9;27.5
76044;BME280;64740;34.694;33.088;2023-02-08T12:36:42;1044.8;;;20.9;27.7
76044;BME280;64740;34.694;33.088;2023-02-08T12:42:02;1044.9;;;21;27.3
76044;BME280;64740;34.694;33.088;2023-02-08T12:46:49;1044.9;;;21.1;26.9
76044;BME280;64740;34.694;33.088;2023-02-08T12:51:38;1044.9;;;21.2;26.9
76044;BME280;64740;34.694;33.088;2023-02-08T12:56:24;1044.9;;;21.2;27
76044;BME280;64740;34.694;33.088;2023-02-08T13:01:39;1045;;;21.4;27.1
76044;BME280;64740;34.694;33.088;2023-02-08T13:06:14;1045;;;21.4;27.1
76044;BME280;64740;34.694;33.088;2023-02-08T13:11:35;1045;;;21;27.2
76044;BME280;64740;34.694;33.088;2023-02-08T13:17:03;1045;;;20.8;27.4
76044;BME280;64740;34.694;33.088;2023-02-08T13:21:48;1045.1;;;20.9;27.4
76044;BME280;64740;34.694;33.088;2023-02-08T13:27:00;1045.1;;;21.1;27.4
76044;BME280;64740;34.694;33.088;2023-02-08T13:31:25;1045.1;;;21.2;27.5
76044;BME280;64740;34.694;33.088;2023-02-08T13:36:53;1045.1;;;21.4;27
76044;BME280;64740;34.694;33.088;2023-02-08T13:41:14;1045.1;;;21.5;26.8
76044;BME280;64740;34.694;33.088;2023-02-08T13:46:45;1045.2;;;21.8;26.6
76044;BME280;64740;34.694;33.088;2023-02-08T13:57:00;1045.2;;;21.4;27.1
76044;BME280;64740;34.694;33.088;2023-02-08T14:02:12;1045.2;;;20.2;28.2
76044;BME280;64740;34.694;33.088;2023-02-08T14:07:11;1045.1;;;19.3;29.4
76044;BME280;64740;34.694;33.088;2023-02-08T14:12:01;1045.1;;;18.8;30.3
76044;BME280;64740;34.694;33.088;2023-02-08T14:16:30;1045.1;;;18.4;30.8
76044;BME280;64740;34.694;33.088;2023-02-08T14:21:45;1045.1;;;18.7;30.8
76044;BME280;64740;34.694;33.088;2023-02-08T14:26:34;1045.1;;;18.8;31
76044;BME280;64740;34.694;33.088;2023-02-08T14:31:48;1045;;;19;30.8
76044;BME280;64740;34.694;33.088;2023-02-08T14:36:26;1045.1;;;19.3;30.4
76044;BME280;64740;34.694;33.088;2023-02-08T14:41:47;1045.1;;;19.5;30.4
76044;BME280;64740;34.694;33.088;2023-02-08T14:46:44;1045.2;;;19.1;30.7
76044;BME280;64740;34.694;33.088;2023-02-08T14:51:37;1045.2;;;18.4;31.3
76044;BME280;64740;34.694;33.088;2023-02-08T14:56:47;1045.4;;;17.9;32.1
76044;BME280;64740;34.694;33.088;2023-02-08T15:01:55;1045.5;;;17.6;31.9
76044;BME280;64740;34.694;33.088;2023-02-08T15:07:42;1045.5;;;17.3;32.4
76044;BME280;64740;34.694;33.088;2023-02-08T15:11:47;1045.5;;;17;32.8
76044;BME280;64740;34.694;33.088;2023-02-08T15:16:58;1045.6;;;16.8;33.2
76044;BME280;64740;34.694;33.088;2023-02-08T15:21:14;1045.6;;;16.7;33.5
76044;BME280;64740;34.694;33.088;2023-02-08T15:26:43;1045.7;;;16.4;33.6
76044;BME280;64740;34.694;33.088;2023-02-08T15:31:21;1045.8;;;16.1;34.4
76044;BME280;64740;34.694;33.088;2023-02-08T15:36:47;1045.8;;;15.9;35
76044;BME280;64740;34.694;33.088;2023-02-08T15:41:36;1045.9;;;15.7;35.1
76044;BME280;64740;34.694;33.088;2023-02-08T15:47:03;1045.9;;;15.6;35.7
76044;BME280;64740;34.694;33.088;2023-02-08T15:51:30;1046;;;15.4;36
76044;BME280;64740;34.694;33.088;2023-02-08T15:56:49;1046;;;15.3;36.1
76044;BME280;64740;34.694;33.088;2023-02-08T16:01:38;1046.1;;;15.1;36.6
76044;BME280;64740;34.694;33.088;2023-02-08T16:06:58;1046.1;;;15;36.5
76044;BME280;64740;34.694;33.088;2023-02-08T16:12:00;1046.2;;;14.9;36.8
76044;BME280;64740;34.694;33.088;2023-02-08T16:16:13;1046.3;;;14.8;36.9
76044;BME280;64740;34.694;33.088;2023-02-08T16:22:14;1046.4;;;14.8;37.1
76044;BME280;64740;34.694;33.088;2023-02-08T16:26:25;1046.5;;;14.7;36.8
76044;BME280;64740;34.694;33.088;2023-02-08T16:32:02;1046.6;;;14.5;37
76044;BME280;64740;34.694;33.088;2023-02-08T16:37:00;1046.6;;;14.6;37
76044;BME280;64740;34.694;33.088;2023-02-08T16:42:00;1046.7;;;14.6;36.9
76044;BME280;64740;34.694;33.088;2023-02-08T16:46:38;1046.8;;;14.6;36.8
76044;BME280;64740;34.694;33.088;2023-02-08T16:51:58;1046.8;;;14.6;36.7
76044;BME280;64740;34.694;33.088;2023-02-08T16:56:12;1046.9;;;14.6;36.7
76044;BME280;64740;34.694;33.088;2023-02-08T17:01:28;1046.9;;;14.6;36.4
76044;BME280;64740;34.694;33.088;2023-02-08T17:06:27;1047;;;14.6;35.9
76044;BME280;64740;34.694;33.088;2023-02-08T17:11:12;1047;;;14.6;36.1
76044;BME280;64740;34.694;33.088;2023-02-08T17:17:03;1047;;;14.5;36.2
76044;BME280;64740;34.694;33.088;2023-02-08T17:21:12;1047.1;;;14.5;35.9
76044;BME280;64740;34.694;33.088;2023-02-08T17:26:48;1047.1;;;14.4;35.9
76044;BME280;64740;34.694;33.088;2023-02-08T17:32:00;1047.2;;;14.4;35.7
76044;BME280;64740;34.694;33.088;2023-02-08T17:37:02;1047.2;;;14.4;35.6
76044;BME280;64740;34.694;33.088;2023-02-08T17:41:13;1047.3;;;14.3;36.1
76044;BME280;64740;34.694;33.088;2023-02-08T17:47:02;1047.3;;;14.4;36.1
76044;BME280;64740;34.694;33.088;2023-02-08T17:51:22;1047.2;;;14.4;34.9
76044;BME280;64740;34.694;33.088;2023-02-08T17:56:26;1047.3;;;13.5;34.4
76044;BME280;64740;34.694;33.088;2023-02-08T18:01:13;1047.3;;;12.2;36.3
76044;BME280;64740;34.694;33.088;2023-02-08T18:06:36;1047.4;;;12;36.8
76044;BME280;64740;34.694;33.088;2023-02-08T18:11:13;1047.4;;;12.4;36.7
76044;BME280;64740;34.694;33.088;2023-02-08T18:16:14;1047.5;;;12.7;36.2
76044;BME280;64740;34.694;33.088;2023-02-08T18:21:40;1047.6;;;13;35.6
76044;BME280;64740;34.694;33.088;2023-02-08T18:27:02;1047.6;;;13.2;35.4
76044;BME280;64740;34.694;33.088;2023-02-08T18:31:38;1047.6;;;13.3;35
76044;BME280;64740;34.694;33.088;2023-02-08T18:36:32;1047.6;;;13.4;34.9
76044;BME280;64740;34.694;33.088;2023-02-08T18:41:58;1047.6;;;13.5;34.9
76044;BME280;64740;34.694;33.088;2023-02-08T18:47:02;1047.6;;;13.6;34.8
76044;BME280;64740;34.694;33.088;2023-02-08T18:51:13;1047.6;;;13.7;34.9
76044;BME280;64740;34.694;33.088;2023-02-08T18:56:12;1047.6;;;13.7;34.7
76044;BME280;64740;34.694;33.088;2023-02-08T19:01:50;1047.6;;;13.6;34.9
76044;BME280;64740;34.694;33.088;2023-02-08T19:06:38;1047.7;;;13.6;34.7
76044;BME280;64740;34.694;33.088;2023-02-08T19:12:00;1047.8;;;13.6;34.7
76044;BME280;64740;34.694;33.088;2023-02-08T19:16:26;1047.8;;;13.6;34.8
76044;BME280;64740;34.694;33.088;2023-02-08T19:21:48;1047.8;;;13.6;35.1
76044;BME280;64740;34.694;33.088;2023-02-08T19:26:13;1047.8;;;13.6;35.2
76044;BME280;64740;34.694;33.088;2023-02-08T19:31:58;1047.8;;;13.6;35
76044;BME280;64740;34.694;33.088;2023-02-08T19:36:29;1047.9;;;13.5;35.2
76044;BME280;64740;34.694;33.088;2023-02-08T19:41:47;1047.9;;;13.2;35.6
76044;BME280;64740;34.694;33.088;2023-02-08T19:46:13;1047.9;;;11.9;38.3
76044;BME280;64740;34.694;33.088;2023-02-08T19:52:00;1048;;;10.6;40.9
76044;BME280;64740;34.694;33.088;2023-02-08T19:56:39;1048.1;;;10;42.7
76044;BME280;64740;34.694;33.088;2023-02-08T20:01:58;1048;;;9.8;42.8
76044;BME280;64740;34.694;33.088;2023-02-08T20:06:58;1047.9;;;10.4;42.1
76044;BME280;64740;34.694;33.088;2023-02-08T20:11:47;1047.8;;;10.9;41.1
76044;BME280;64740;34.694;33.088;2023-02-08T20:16:46;1047.7;;;11.4;40.6
76044;BME280;64740;34.694;33.088;2023-02-08T20:21:36;1047.7;;;11.8;40.5
76044;BME280;64740;34.694;33.088;2023-02-08T20:26:50;1047.6;;;12;39.9
76044;BME280;64740;34.694;33.088;2023-02-08T20:31:27;1047.6;;;12.2;39.6
76044;BME280;64740;34.694;33.088;2023-02-08T20:36:45;1047.7;;;12.3;39.5
76044;BME280;64740;34.694;33.088;2023-02-08T20:41:52;1047.8;;;12.4;39.5
76044;BME280;64740;34.694;33.088;2023-02-08T20:46:44;1047.8;;;12.5;39.4
76044;BME280;64740;34.694;33.088;2023-02-08T20:51:38;1047.7;;;12.5;39.5
76044;BME280;64740;34.694;33.088;2023-02-08T20:57:02;1047.8;;;12.6;39.5
76044;BME280;64740;34.694;33.088;2023-02-08T21:01:47;1047.8;;;12.5;39.2
76044;BME280;64740;34.694;33.088;2023-02-08T21:06:49;1047.8;;;12.6;39.2
76044;BME280;64740;34.694;33.088;2023-02-08T21:11:48;1047.8;;;12.6;39.2
76044;BME280;64740;34.694;33.088;2023-02-08T22:51:48;1047.9;;;12.6;38.9
76044;BME280;64740;34.694;33.088;2023-02-08T22:57:00;1048;;;12.5;38.4
76044;BME280;64740;34.694;33.088;2023-02-08T23:01:44;1048;;;12.5;38.5
76044;BME280;64740;34.694;33.088;2023-02-08T23:06:26;1048;;;12.5;38.4
76044;BME280;64740;34.694;33.088;2023-02-08T23:12:02;1048;;;12.5;38.7
76044;BME280;64740;34.694;33.088;2023-02-08T23:16:13;1048;;;12.5;38.4
76044;BME280;64740;34.694;33.088;2023-02-08T23:21:50;1048;;;12.4;38.4
76044;BME280;64740;34.694;33.088;2023-02-08T23:27:00;1048;;;12.4;38.3
76044;BME280;64740;34.694;33.088;2023-02-08T23:32:00;1048;;;12.4;38.2
76044;BME280;64740;34.694;33.088;2023-02-08T23:36:38;1048;;;12.4;38.3
76044;BME280;64740;34.694;33.088;2023-02-08T23:42:02;1047.9;;;12.4;38.3
76044;BME280;64740;34.694;33.088;2023-02-08T23:46:36;1047.9;;;12.4;38.4
76044;BME280;64740;34.694;33.088;2023-02-08T23:51:26;1047.9;;;12.5;38.4
76044;BME280;64740;34.694;33.088;2023-02-08T23:56:36;1048;;;12.5;38.3
